Miner, Montana
Current Conditions -  °F | °C
As of 7:53 PM on Friday 19 Dec 2014 (Local Time) from KLVM Reporting Station
Overcast Overcast  
Wind Chill: 32°   Ceiling: 10000
Heat Index: 41°   Visibility: 10mi
Dew Point: 26°   Wind: 20mph
Humidity: 55%   Direction: 260°W
Pressure: 29.88"   Gusts: 35mph
Location:  45.199°N, 110.818°W
Report Text: KLVM 200253Z AUTO 26017G30KT 10SM SCT070 OVC100 05/M03 A2988 RMK AO2 PK WND 26034/0159 SLP128 T00501033 51011
Loading
Personal Weather Stations






























Interactive Weather Map New forecast layout! Learn more

10-Day Weather Forecast

Advertisements
Track Severe Weather on mobile